Time;durP1;ratioP1;P1;durP2;ratioP2;P2;SDS_P1;SDS_P2;PMS_P1;PMS_P2;Temp;Humidity;BMP_temperature;BMP_pressure;BME280_temperature;BME280_humidity;BME280_pressure;Samples;Min_cycle;Max_cycle;Signal;HPM_P1;HPM_P2
2022/03/30 00:00:44;;;;;;;17.35;7.40;;;;;;;11.01;54.16;94743.25;6363819;22;20457;-67
2022/03/30 00:03:09;;;;;;;22.15;6.95;;;;;;;11.02;53.93;94736.97;6364851;22;20010;-67
2022/03/30 00:05:35;;;;;;;17.52;6.80;;;;;;;11.02;53.87;94739.63;6366039;22;20657;-67
2022/03/30 00:08:01;;;;;;;15.75;6.78;;;;;;;11.02;53.52;94731.72;6365311;22;20070;-67
2022/03/30 00:10:26;;;;;;;25.20;7.18;;;;;;;11.01;53.76;94727.44;6366239;22;20342;-67
2022/03/30 00:12:52;;;;;;;22.42;6.53;;;;;;;10.99;54.26;94724.16;6365463;22;20075;-67
2022/03/30 00:15:17;;;;;;;15.38;6.53;;;;;;;10.97;53.54;94731.41;6366138;22;20006;-67
2022/03/30 00:17:43;;;;;;;22.10;6.80;;;;;;;10.95;53.79;94726.28;6366849;22;20002;-67
2022/03/30 00:20:10;;;;;;;24.05;7.00;;;;;;;10.97;53.57;94719.03;6366806;22;20112;-67
2022/03/30 00:22:35;;;;;;;24.13;7.18;;;;;;;11.01;54.34;94722.19;6367337;22;20003;-67
2022/03/30 00:25:01;;;;;;;22.08;7.63;;;;;;;10.98;54.48;94730.41;6366842;22;20016;-67
2022/03/30 00:27:26;;;;;;;16.80;7.07;;;;;;;10.88;55.38;94731.41;6367402;22;19998;-67
2022/03/30 00:29:52;;;;;;;18.58;7.40;;;;;;;11.08;54.00;94730.22;6366630;22;20387;-67
2022/03/30 00:32:17;;;;;;;20.13;7.32;;;;;;;11.05;53.93;94723.47;6367609;22;19998;-67
2022/03/30 00:34:44;;;;;;;22.08;7.65;;;;;;;10.99;54.47;94729.44;6366742;22;20055;-67
2022/03/30 00:37:10;;;;;;;14.20;6.35;;;;;;;10.85;55.73;94733.56;6367518;22;20334;-67
2022/03/30 00:39:35;;;;;;;22.08;8.20;;;;;;;10.82;55.68;94728.59;6366874;22;20086;-67
2022/03/30 00:42:01;;;;;;;21.23;7.72;;;;;;;10.89;55.88;94730.41;6367540;22;20090;-67
2022/03/30 00:44:26;;;;;;;20.58;7.72;;;;;;;10.79;56.93;94732.41;6366962;22;20507;-67
2022/03/30 00:46:52;;;;;;;16.52;7.35;;;;;;;10.71;59.42;94735.03;6367373;22;20006;-67
2022/03/30 00:49:17;;;;;;;21.40;8.00;;;;;;;10.65;60.46;94739.19;6367048;22;20014;-67
2022/03/30 00:51:43;;;;;;;25.60;9.45;;;;;;;10.50;60.41;94741.66;6366813;22;20069;-68
2022/03/30 00:54:09;;;;;;;19.02;9.25;;;;;;;10.41;62.86;94725.06;6367451;22;20024;-68
2022/03/30 00:56:36;;;;;;;20.83;7.88;;;;;;;10.55;60.55;94726.19;6367124;22;20598;-66
2022/03/30 00:59:07;;;;;;;17.83;7.78;;;;;;;10.79;59.21;94729.78;6367164;22;20006;-67
2022/03/30 01:01:34;;;;;;;15.93;6.93;;;;;;;10.61;61.68;94732.63;6366855;22;20010;-68
2022/03/30 01:04:03;;;;;;;14.60;7.25;;;;;;;10.46;62.55;94735.91;6367182;22;20003;-68
2022/03/30 01:06:29;;;;;;;21.15;6.95;;;;;;;10.36;62.84;94731.75;6367392;22;20381;-67
2022/03/30 01:08:55;;;;;;;15.40;7.20;;;;;;;10.29;66.46;94724.53;6367038;22;20002;-67
2022/03/30 01:11:22;;;;;;;16.00;6.82;;;;;;;10.20;65.59;94730.75;6338746;22;20006;-68
2022/03/30 01:13:48;;;;;;;14.70;6.70;;;;;;;10.09;66.29;94725.81;6367016;22;20002;-68
2022/03/30 01:16:13;;;;;;;15.30;7.10;;;;;;;10.31;65.08;94727.81;6366460;22;20009;-68
2022/03/30 01:18:39;;;;;;;24.88;6.45;;;;;;;10.24;65.84;94726.81;6366788;22;20006;-68
2022/03/30 01:21:05;;;;;;;20.50;7.95;;;;;;;10.35;65.25;94730.91;6366888;22;20434;-67
2022/03/30 01:23:31;;;;;;;22.40;6.63;;;;;;;10.28;66.59;94725.50;6366476;22;20005;-67
2022/03/30 01:25:56;;;;;;;21.35;7.20;;;;;;;10.03;67.65;94720.19;6366923;22;20002;-67
2022/03/30 01:28:27;;;;;;;11.55;6.35;;;;;;;10.24;67.55;94732.06;6366681;22;20515;-67
2022/03/30 01:33:38;;;;;;;18.15;6.85;;;;;;;10.15;67.58;94725.16;6366637;22;20452;-68
2022/03/30 01:36:03;;;;;;;19.23;7.22;;;;;;;10.13;67.80;94713.97;6367042;22;20010;-68
2022/03/30 01:38:29;;;;;;;17.63;8.23;;;;;;;10.06;67.78;94712.97;6366673;22;20335;-68
2022/03/30 01:40:54;;;;;;;18.25;7.22;;;;;;;9.98;69.46;94709.34;6366775;22;20475;-68
2022/03/30 01:43:21;;;;;;;12.90;6.45;;;;;;;9.82;69.36;94704.91;6366648;22;20330;-68
2022/03/30 01:45:47;;;;;;;19.00;6.93;;;;;;;9.73;70.86;94706.69;6366628;22;20009;-68
2022/03/30 01:48:12;;;;;;;20.15;7.68;;;;;;;9.69;71.09;94697.47;6366306;22;20011;-68
2022/03/30 01:50:38;;;;;;;12.50;6.38;;;;;;;9.58;73.27;94690.72;6366631;22;20091;-68
2022/03/30 01:53:03;;;;;;;18.17;7.57;;;;;;;9.54;72.95;94691.19;6366969;22;20010;-68
2022/03/30 01:55:28;;;;;;;22.20;6.88;;;;;;;9.60;71.90;94688.75;6366692;22;20006;-68
2022/03/30 01:57:54;;;;;;;16.17;6.72;;;;;;;9.46;75.14;94690.19;6366359;22;20106;-68
2022/03/30 02:00:21;;;;;;;23.20;7.88;;;;;;;9.39;75.96;94688.38;6366594;22;20012;-68
2022/03/30 02:02:46;;;;;;;17.00;6.63;;;;;;;9.42;74.20;94685.41;6366731;22;20002;-68
2022/03/30 02:05:12;;;;;;;20.75;6.80;;;;;;;9.46;75.91;94673.59;6365974;22;20002;-68
2022/03/30 02:07:38;;;;;;;18.75;7.10;;;;;;;9.39;75.56;94680.47;6366153;22;20005;-68
2022/03/30 02:10:06;;;;;;;14.20;7.40;;;;;;;9.29;76.89;94676.19;6366502;22;20025;-68
2022/03/30 02:12:31;;;;;;;19.63;6.40;;;;;;;9.24;79.82;94677.66;6366599;22;20014;-68
2022/03/30 02:14:57;;;;;;;18.95;7.53;;;;;;;9.16;80.87;94675.81;6366530;22;20609;-68
2022/03/30 02:17:24;;;;;;;16.35;6.55;;;;;;;9.13;81.76;94676.94;6366434;22;19999;-68
2022/03/30 02:19:49;;;;;;;12.75;6.63;;;;;;;9.07;80.79;94668.88;6367563;22;20006;-68
2022/03/30 02:22:15;;;;;;;12.93;6.93;;;;;;;9.05;83.11;94671.66;6367659;22;20034;-69
2022/03/30 02:24:41;;;;;;;20.55;7.57;;;;;;;8.99;82.72;94662.59;6367556;22;20009;-68
2022/03/30 02:27:07;;;;;;;17.13;7.15;;;;;;;8.89;84.38;94660.09;6367722;22;20373;-69
2022/03/30 02:29:34;;;;;;;13.93;6.55;;;;;;;8.89;84.03;94660.09;6367543;22;20002;-69
2022/03/30 02:32:00;;;;;;;27.63;7.57;;;;;;;8.92;84.33;94664.22;6367322;22;20013;-69
2022/03/30 02:34:26;;;;;;;28.88;7.03;;;;;;;8.94;83.83;94658.78;6367117;22;20006;-69
2022/03/30 02:36:52;;;;;;;18.45;8.05;;;;;;;9.03;82.94;94656.06;6367417;22;20086;-70
2022/03/30 02:39:18;;;;;;;23.80;7.45;;;;;;;8.94;83.88;94658.78;6367073;22;19998;-69
2022/03/30 02:41:44;;;;;;;17.50;7.00;;;;;;;9.01;83.22;94657.22;6367659;22;20449;-69
2022/03/30 02:44:10;;;;;;;17.80;7.18;;;;;;;9.00;85.00;94645.88;6367291;22;19999;-69
2022/03/30 02:46:35;;;;;;;16.60;6.72;;;;;;;9.04;85.50;94646.38;6367209;22;20002;-69
2022/03/30 02:49:01;;;;;;;17.40;6.82;;;;;;;9.03;86.16;94642.91;6367547;22;20358;-69
2022/03/30 02:51:27;;;;;;;15.40;7.22;;;;;;;8.97;87.11;94648.00;6367408;22;20033;-69
2022/03/30 02:53:54;;;;;;;17.70;7.15;;;;;;;8.87;88.64;94645.50;6367348;22;20006;-69
2022/03/30 02:56:19;;;;;;;17.90;6.80;;;;;;;8.82;87.27;94647.75;6366981;22;19998;-69
2022/03/30 02:58:45;;;;;;;16.92;6.47;;;;;;;8.80;87.33;94640.06;6367130;22;20538;-69
2022/03/30 03:01:10;;;;;;;14.75;6.97;;;;;;;8.81;89.11;94643.47;6367594;22;20028;-69
2022/03/30 03:03:36;;;;;;;13.95;6.55;;;;;;;8.76;89.75;94638.72;6367428;22;20018;-69
2022/03/30 03:06:01;;;;;;;18.73;7.53;;;;;;;8.77;89.28;94637.75;6367415;22;20013;-69
2022/03/30 03:08:26;;;;;;;18.23;6.65;;;;;;;8.79;88.44;94635.78;6367011;22;20015;-69
2022/03/30 03:10:52;;;;;;;15.45;6.95;;;;;;;8.83;88.47;94637.09;6367458;22;20002;-69
2022/03/30 03:13:17;;;;;;;15.10;6.72;;;;;;;8.84;89.37;94640.53;6367397;22;20423;-69
2022/03/30 03:15:45;;;;;;;17.17;7.07;;;;;;;8.82;88.59;94632.84;6367670;22;20007;-69
2022/03/30 03:18:10;;;;;;;16.50;6.25;;;;;;;8.71;91.92;94625.22;6367506;22;20066;-69
2022/03/30 03:20:36;;;;;;;17.73;7.47;;;;;;;8.67;91.31;94626.53;6366745;22;20097;-69
2022/03/30 03:23:02;;;;;;;17.80;6.65;;;;;;;8.68;90.71;94622.91;6367182;22;20095;-69
2022/03/30 03:25:31;;;;;;;16.23;6.15;;;;;;;8.51;92.45;94620.22;6366841;22;20499;-69
2022/03/30 03:27:57;;;;;;;19.25;6.55;;;;;;;8.52;92.34;94624.50;6366966;22;20006;-69
2022/03/30 03:30:22;;;;;;;20.90;6.85;;;;;;;8.58;91.89;94621.25;6367057;22;20030;-68
2022/03/30 03:32:47;;;;;;;16.40;6.57;;;;;;;8.63;92.43;94618.16;6366979;22;20002;-68
2022/03/30 03:35:14;;;;;;;13.80;7.20;;;;;;;8.59;95.01;94614.19;6367303;22;20005;-68
2022/03/30 03:37:40;;;;;;;20.58;7.28;;;;;;;8.46;94.82;94618.03;6368154;22;20077;-68
2022/03/30 03:40:07;;;;;;;16.42;6.63;;;;;;;8.47;93.08;94618.84;6369261;22;20028;-68
2022/03/30 03:42:33;;;;;;;16.15;6.63;;;;;;;8.48;93.64;94610.00;6365765;22;20081;-68
2022/03/30 03:44:59;;;;;;;14.00;7.60;;;;;;;8.35;97.72;94615.66;6368887;22;20006;-68
2022/03/30 03:47:25;;;;;;;18.05;7.22;;;;;;;8.44;94.50;94608.66;6367095;22;20025;-68
2022/03/30 03:49:51;;;;;;;20.25;7.90;;;;;;;8.54;93.77;94604.19;6368638;22;20010;-69
2022/03/30 03:52:16;;;;;;;17.38;7.75;;;;;;;8.54;93.07;94604.19;6368481;22;20005;-68
2022/03/30 03:54:42;;;;;;;13.40;6.82;;;;;;;8.43;96.79;94604.41;6368050;22;20002;-68
2022/03/30 03:57:08;;;;;;;21.48;7.63;;;;;;;8.38;94.23;94604.84;6367932;22;20079;-68
2022/03/30 03:59:33;;;;;;;21.40;7.22;;;;;;;8.37;95.18;94602.41;6368566;22;20012;-69
2022/03/30 04:01:59;;;;;;;21.13;7.88;;;;;;;8.78;93.15;94599.19;6368549;22;20052;-68
2022/03/30 04:04:25;;;;;;;16.75;7.43;;;;;;;8.59;93.07;94604.53;6369009;22;20501;-69
2022/03/30 04:06:50;;;;;;;17.88;6.65;;;;;;;8.53;93.99;94599.06;6369084;22;20026;-69
2022/03/30 04:09:15;;;;;;;16.08;7.22;;;;;;;8.45;94.10;94602.44;6368975;22;20085;-68
2022/03/30 04:11:41;;;;;;;21.65;7.18;;;;;;;8.41;94.80;94599.31;6368641;22;20003;-68
2022/03/30 04:14:06;;;;;;;10.90;6.72;;;;;;;8.38;95.34;94594.38;6368235;22;19998;-69
2022/03/30 04:16:31;;;;;;;21.30;6.97;;;;;;;8.36;95.29;94593.69;6368835;22;20002;-69
2022/03/30 04:18:57;;;;;;;18.15;7.13;;;;;;;8.35;94.87;94591.25;6368922;22;20006;-68
2022/03/30 04:21:22;;;;;;;9.65;6.32;;;;;;;8.36;95.12;94591.06;6368581;22;20007;-68
2022/03/30 04:23:48;;;;;;;13.27;6.63;;;;;;;8.38;95.37;94590.94;6368746;22;19998;-69
2022/03/30 04:26:13;;;;;;;18.83;6.78;;;;;;;8.38;95.57;94586.50;6367999;22;20005;-68
2022/03/30 04:28:40;;;;;;;10.63;7.10;;;;;;;8.48;93.37;94588.19;6368993;22;20010;-68
2022/03/30 04:31:07;;;;;;;15.07;6.70;;;;;;;8.39;94.77;94582.09;6368916;22;20041;-68
2022/03/30 04:33:33;;;;;;;12.02;6.35;;;;;;;8.29;95.69;94583.03;6368732;22;20006;-68
2022/03/30 04:35:58;;;;;;;16.08;7.38;;;;;;;8.13;98.65;94588.97;6369249;22;20358;-69
2022/03/30 04:38:24;;;;;;;11.60;6.32;;;;;;;8.09;98.91;94576.34;6368638;22;20190;-69
2022/03/30 04:40:49;;;;;;;16.23;6.93;;;;;;;8.11;98.45;94585.69;6368575;22;20006;-69
2022/03/30 04:43:14;;;;;;;11.57;6.43;;;;;;;8.06;100.00;94582.72;6368620;22;20003;-68
2022/03/30 04:45:40;;;;;;;17.88;6.38;;;;;;;8.02;99.37;94579.56;6368585;22;20037;-68
2022/03/30 04:48:05;;;;;;;10.07;6.50;;;;;;;8.09;98.58;94582.41;6367264;22;20067;-69
2022/03/30 04:50:31;;;;;;;10.68;5.90;;;;;;;8.13;98.72;94585.53;6366933;22;20059;-68
2022/03/30 04:52:56;;;;;;;15.98;7.00;;;;;;;8.17;97.44;94581.63;6368383;22;20523;-68
2022/03/30 04:55:22;;;;;;;16.73;7.22;;;;;;;8.16;97.69;94583.41;6368714;22;20002;-68
2022/03/30 04:57:47;;;;;;;12.32;7.32;;;;;;;8.21;96.55;94576.91;6368601;22;20003;-68
2022/03/30 05:00:13;;;;;;;20.45;6.45;;;;;;;8.21;97.20;94576.91;6368366;22;20006;-68
2022/03/30 05:02:40;;;;;;;13.80;6.60;;;;;;;8.43;95.95;94575.53;6368297;22;20006;-68
2022/03/30 05:05:08;;;;;;;16.58;6.90;;;;;;;8.17;97.73;94574.56;6368479;22;20319;-68
2022/03/30 05:07:34;;;;;;;10.63;6.22;;;;;;;8.13;97.72;94570.63;6368456;22;20392;-68
2022/03/30 05:09:59;;;;;;;12.73;5.55;;;;;;;8.17;97.00;94571.94;6368601;22;20010;-68
2022/03/30 05:12:25;;;;;;;11.48;5.82;;;;;;;8.14;97.05;94564.41;6340046;22;20404;-68
2022/03/30 05:14:50;;;;;;;10.65;6.18;;;;;;;8.10;97.56;94564.88;6368230;22;20034;-68
2022/03/30 05:17:16;;;;;;;13.55;8.18;;;;;;;8.01;98.60;94569.25;6368312;22;20002;-68
2022/03/30 05:19:44;;;;;;;13.38;5.85;;;;;;;8.01;99.44;94566.63;6368386;22;20002;-68
2022/03/30 05:22:09;;;;;;;12.93;6.70;;;;;;;8.29;96.52;94555.97;6367938;22;19998;-69
2022/03/30 05:24:36;;;;;;;16.23;6.28;;;;;;;8.19;96.67;94560.50;6368461;22;20052;-68
2022/03/30 05:27:01;;;;;;;14.95;6.65;;;;;;;8.14;96.53;94561.78;6368246;22;20010;-68
2022/03/30 05:29:27;;;;;;;8.45;5.93;;;;;;;7.94;99.72;94565.56;6367936;22;20497;-68
2022/03/30 05:31:52;;;;;;;19.77;7.20;;;;;;;7.88;99.48;94564.41;6368097;22;20002;-67
2022/03/30 05:34:17;;;;;;;18.25;6.97;;;;;;;8.07;97.47;94571.25;6368306;22;19999;-69
2022/03/30 05:36:43;;;;;;;12.90;7.00;;;;;;;7.95;99.09;94562.81;6367804;22;20020;-68
2022/03/30 05:39:08;;;;;;;10.32;6.10;;;;;;;7.85;100.00;94572.59;6368365;22;20085;-70
2022/03/30 05:41:34;;;;;;;14.48;7.13;;;;;;;7.79;100.00;94573.16;6368093;22;19995;-68
2022/03/30 05:44:00;;;;;;;18.77;8.00;;;;;;;7.75;100.00;94567.44;6367949;22;20002;-69
2022/03/30 05:46:26;;;;;;;20.38;9.15;;;;;;;7.72;100.00;94576.41;6367633;22;20059;-69
2022/03/30 05:48:51;;;;;;;12.55;8.93;;;;;;;7.73;100.00;94574.59;6367542;22;20396;-68
2022/03/30 05:51:18;;;;;;;14.48;8.55;;;;;;;7.77;100.00;94575.13;6367942;22;20088;-68
2022/03/30 05:53:44;;;;;;;15.40;8.88;;;;;;;7.80;100.00;94569.56;6367942;22;20004;-69
2022/03/30 05:56:09;;;;;;;18.05;8.35;;;;;;;7.80;100.00;94580.06;6368196;22;20073;-68
2022/03/30 05:58:35;;;;;;;16.75;8.98;;;;;;;7.72;100.00;94588.66;6367811;22;20006;-68
2022/03/30 06:01:00;;;;;;;20.23;8.32;;;;;;;7.69;100.00;94583.72;6367609;22;20037;-69
2022/03/30 06:03:26;;;;;;;19.33;8.38;;;;;;;7.75;100.00;94580.53;6367767;22;20010;-69
2022/03/30 06:05:51;;;;;;;19.42;8.05;;;;;;;7.84;100.00;94578.78;6367987;22;20376;-69
2022/03/30 06:08:17;;;;;;;12.90;7.30;;;;;;;7.93;100.00;94585.72;6367663;22;20077;-69
2022/03/30 06:10:42;;;;;;;15.43;8.00;;;;;;;7.96;100.00;94584.63;6367683;22;20003;-68
2022/03/30 06:13:08;;;;;;;17.52;7.93;;;;;;;7.96;100.00;94589.88;6367544;22;20338;-69
2022/03/30 06:15:34;;;;;;;11.98;5.70;;;;;;;7.97;100.00;94589.69;6365685;22;20002;-69
2022/03/30 06:18:00;;;;;;;12.43;5.97;;;;;;;7.98;100.00;94586.09;6365419;22;20078;-69
2022/03/30 06:20:26;;;;;;;12.25;6.53;;;;;;;7.95;100.00;94583.78;6366410;22;20138;-69
2022/03/30 06:22:53;;;;;;;10.68;5.95;;;;;;;7.96;100.00;94588.03;6366683;22;20010;-69
2022/03/30 06:25:22;;;;;;;11.05;6.68;;;;;;;7.93;100.00;94592.75;6366594;22;19998;-69
2022/03/30 06:27:48;;;;;;;16.98;7.40;;;;;;;7.85;100.00;94589.13;6367391;22;20394;-69
2022/03/30 06:30:14;;;;;;;14.73;7.45;;;;;;;7.78;100.00;94584.63;6367136;22;20007;-68
2022/03/30 06:32:40;;;;;;;16.83;6.38;;;;;;;7.89;100.00;94589.63;6366256;22;20051;-65
2022/03/30 06:35:06;;;;;;;9.02;5.95;;;;;;;7.99;100.00;94590.34;6367213;22;19998;-62
2022/03/30 06:37:32;;;;;;;13.80;6.05;;;;;;;8.08;99.56;94587.81;6367533;22;20025;-61
2022/03/30 06:39:57;;;;;;;10.77;6.47;;;;;;;8.14;98.83;94589.81;6367882;22;20064;-61
2022/03/30 06:42:22;;;;;;;14.30;6.47;;;;;;;8.16;98.88;94587.84;6367169;22;19998;-62
2022/03/30 06:44:48;;;;;;;14.25;6.85;;;;;;;8.14;99.53;94585.38;6366402;22;20411;-61
2022/03/30 06:47:14;;;;;;;13.00;7.93;;;;;;;8.03;100.00;94578.59;6365952;22;20009;-62
2022/03/30 06:49:39;;;;;;;13.30;7.53;;;;;;;7.94;100.00;94587.38;6364607;22;20009;-61
2022/03/30 06:52:06;;;;;;;17.63;7.13;;;;;;;7.91;100.00;94587.69;6366384;22;20005;-61
2022/03/30 06:54:32;;;;;;;19.58;7.38;;;;;;;7.95;100.00;94578.53;6366995;22;20006;-62
2022/03/30 06:57:00;;;;;;;11.32;7.50;;;;;;;7.98;100.00;94572.97;6367562;22;20436;-63
2022/03/30 06:59:26;;;;;;;10.65;6.82;;;;;;;7.96;100.00;94579.38;6367723;22;20024;-61
2022/03/30 07:01:54;;;;;;;14.00;6.55;;;;;;;7.95;100.00;94581.16;6366846;22;20006;-62
2022/03/30 07:04:21;;;;;;;13.45;6.55;;;;;;;8.00;100.00;94578.91;6364874;22;20003;-61
2022/03/30 07:12:14;;;;;;;17.20;6.97;;;;;;;8.23;100.00;94561.84;6365672;22;20018;-62
2022/03/30 07:14:39;;;;;;;18.13;7.47;;;;;;;8.20;100.00;94559.53;6366239;22;20010;-63
2022/03/30 07:17:05;;;;;;;14.80;7.50;;;;;;;8.12;100.00;94560.31;6365140;22;20033;-62
2022/03/30 07:19:30;;;;;;;20.25;7.57;;;;;;;8.09;100.00;94564.03;6361597;22;20414;-60
2022/03/30 07:21:56;;;;;;;16.08;7.53;;;;;;;8.17;100.00;94561.47;6360786;22;19998;-60
2022/03/30 07:24:21;;;;;;;13.82;8.27;;;;;;;8.19;100.00;94550.84;6364451;22;20405;-60
2022/03/30 07:26:46;;;;;;;14.15;9.02;;;;;;;8.17;100.00;94555.41;6365456;22;20093;-59
2022/03/30 07:29:12;;;;;;;15.57;7.32;;;;;;;8.16;100.00;94551.16;6365820;22;20438;-60
2022/03/30 07:31:37;;;;;;;15.57;7.55;;;;;;;8.16;100.00;94559.00;6363710;22;20014;-60
2022/03/30 07:34:03;;;;;;;11.85;6.75;;;;;;;8.19;100.00;94540.34;6366322;22;19999;-60
2022/03/30 07:36:29;;;;;;;17.00;7.55;;;;;;;8.23;100.00;94552.16;6364701;22;20057;-60
2022/03/30 07:38:55;;;;;;;14.38;7.15;;;;;;;8.24;99.56;94547.75;6364968;22;20006;-61
2022/03/30 07:41:20;;;;;;;16.75;10.07;;;;;;;8.21;100.00;94546.25;6364968;22;20017;-60
2022/03/30 07:43:46;;;;;;;19.50;12.13;;;;;;;8.29;100.00;94535.00;6366016;22;20075;-61
2022/03/30 07:46:13;;;;;;;24.00;10.05;;;;;;;8.34;100.00;94540.59;6365882;22;20002;-62
2022/03/30 07:48:39;;;;;;;20.67;10.27;;;;;;;8.44;100.00;94541.31;6363921;22;20014;-62
2022/03/30 07:51:04;;;;;;;16.63;9.30;;;;;;;8.52;99.21;94540.56;6364902;22;20060;-62
2022/03/30 07:53:29;;;;;;;19.02;9.38;;;;;;;8.49;99.46;94540.00;6363824;22;19994;-62
2022/03/30 07:55:55;;;;;;;15.88;8.98;;;;;;;8.41;99.92;94535.53;6364270;22;20086;-61
2022/03/30 07:58:21;;;;;;;19.40;10.65;;;;;;;8.48;99.93;94536.53;6363396;22;20055;-61
2022/03/30 08:00:47;;;;;;;21.73;10.38;;;;;;;8.47;99.20;94542.78;6364849;22;20445;-62
2022/03/30 08:03:13;;;;;;;22.30;8.38;;;;;;;8.48;98.17;94540.97;6365019;22;20370;-62
2022/03/30 08:05:38;;;;;;;13.82;9.50;;;;;;;8.53;98.06;94534.31;6363603;22;19998;-62
2022/03/30 08:08:06;;;;;;;22.02;9.68;;;;;;;8.68;97.39;94536.31;6363404;22;20009;-61
2022/03/30 08:10:33;;;;;;;15.27;8.40;;;;;;;8.91;96.80;94530.50;6363306;22;20010;-62
2022/03/30 08:12:59;;;;;;;17.90;7.20;;;;;;;9.03;94.62;94534.47;6335673;22;20011;-62
2022/03/30 08:15:25;;;;;;;15.85;6.70;;;;;;;9.17;93.67;94536.47;6335842;22;20015;-62
2022/03/30 08:17:51;;;;;;;18.58;9.35;;;;;;;9.14;94.90;94528.09;6363771;22;20320;-61
2022/03/30 08:23:03;;;;;;;16.20;7.57;;;;;;;9.35;93.73;94527.63;6363575;22;20021;-61
2022/03/30 08:25:29;;;;;;;16.98;7.70;;;;;;;9.38;92.95;94532.53;6364427;22;20024;-61
2022/03/30 08:27:54;;;;;;;15.07;6.72;;;;;;;9.31;92.02;94528.94;6364271;22;20045;-61
2022/03/30 08:30:20;;;;;;;18.88;7.35;;;;;;;9.28;90.53;94530.09;6364598;22;20043;-62
2022/03/30 08:32:46;;;;;;;12.02;5.72;;;;;;;9.28;90.51;94532.72;6364935;22;20401;-61
2022/03/30 08:35:12;;;;;;;11.35;5.72;;;;;;;9.31;89.38;94536.81;6365642;22;20049;-61
2022/03/30 08:37:38;;;;;;;10.90;6.05;;;;;;;9.34;89.95;94536.47;6364783;22;20013;-61
2022/03/30 08:40:05;;;;;;;10.35;6.03;;;;;;;9.44;90.97;94529.28;6336526;22;20010;-61
2022/03/30 08:42:30;;;;;;;17.08;6.50;;;;;;;9.78;90.09;94531.91;6364945;22;20025;-61
2022/03/30 08:44:55;;;;;;;11.18;7.45;;;;;;;9.92;89.24;94523.34;6365328;22;20438;-61
2022/03/30 08:47:21;;;;;;;13.45;5.68;;;;;;;9.98;89.66;94517.41;6308918;22;1282314;-61
2022/03/30 08:49:50;;;;;;;11.95;6.32;;;;;;;9.96;90.52;94518.59;6365728;22;20093;-61
2022/03/30 08:52:16;;;;;;;12.20;6.18;;;;;;;9.94;88.76;94505.59;6366618;22;20010;-61
2022/03/30 08:54:49;;;;;;;14.25;7.28;;;;;;;9.81;87.55;94514.00;6367086;22;20006;-61
2022/03/30 08:57:15;;;;;;;7.93;5.38;;;;;;;9.95;86.78;94517.75;6367025;22;20060;-61
2022/03/30 09:00:04;;;;;;;10.77;5.68;;;;;;;10.03;84.73;94522.19;6365930;22;20013;-61
2022/03/30 09:02:38;;;;;;;12.18;5.90;;;;;;;10.29;86.00;94521.13;6367208;22;20009;-61
2022/03/30 09:05:31;;;;;;;9.77;5.28;;;;;;;10.31;81.79;94524.41;6366552;22;20002;-61
2022/03/30 09:08:13;;;;;;;10.55;5.85;;;;;;;10.40;81.96;94514.69;6359874;22;20010;-61
2022/03/30 09:10:43;;;;;;;12.65;6.20;;;;;;;10.45;81.37;94510.59;6365853;22;20007;-61
2022/03/30 09:13:10;;;;;;;16.45;6.10;;;;;;;10.48;82.17;94512.03;6366884;22;20464;-61
2022/03/30 09:15:37;;;;;;;9.45;5.28;;;;;;;10.84;81.07;94497.59;6338807;22;20002;-61
2022/03/30 09:18:05;;;;;;;10.18;5.63;;;;;;;10.98;79.56;94503.94;6366856;22;20026;-61
2022/03/30 09:20:31;;;;;;;9.32;5.20;;;;;;;11.26;80.63;94509.50;6338246;22;20007;-61
2022/03/30 09:22:59;;;;;;;7.22;4.10;;;;;;;11.60;76.59;94499.53;6338987;22;20006;-61
2022/03/30 09:25:26;;;;;;;7.82;4.55;;;;;;;11.55;76.23;94499.25;6366434;22;20009;-61
2022/03/30 09:27:54;;;;;;;7.10;5.15;;;;;;;11.64;76.59;94503.47;6338564;22;20014;-61
2022/03/30 09:30:21;;;;;;;8.15;4.60;;;;;;;11.81;73.34;94495.41;6366076;22;20085;-61
2022/03/30 09:32:49;;;;;;;7.80;3.92;;;;;;;11.40;70.29;94494.75;6366359;22;20097;-62
2022/03/30 09:35:32;;;;;;;6.38;4.20;;;;;;;11.35;70.08;94497.09;6365716;22;19998;-61
2022/03/30 09:38:04;;;;;;;7.00;4.88;;;;;;;11.73;73.61;94493.69;6366722;22;20014;-61
2022/03/30 09:40:39;;;;;;;8.70;4.47;;;;;;;11.93;73.25;94486.06;6366028;22;20450;-61
2022/03/30 09:43:17;;;;;;;7.18;4.70;;;;;;;11.90;73.33;94491.69;6367252;22;19999;-61
2022/03/30 09:45:43;;;;;;;8.30;4.68;;;;;;;11.78;69.62;94490.47;6366463;22;20007;-61
2022/03/30 09:48:24;;;;;;;7.65;4.70;;;;;;;11.90;71.64;94483.78;6365863;22;20507;-61
2022/03/30 09:50:52;;;;;;;8.65;4.55;;;;;;;12.02;71.60;94477.09;6366327;22;20438;-61
2022/03/30 09:53:19;;;;;;;6.82;5.00;;;;;;;11.80;71.15;94476.13;6366527;22;20009;-61
2022/03/30 09:55:54;;;;;;;6.55;4.88;;;;;;;11.64;73.47;94471.00;6365594;22;20007;-61
2022/03/30 09:58:21;;;;;;;9.27;4.85;;;;;;;11.58;74.65;94468.09;6366050;22;20082;-62
2022/03/30 10:01:09;;;;;;;9.90;4.90;;;;;;;11.62;72.30;94465.94;6337593;22;20006;-61
2022/03/30 10:03:45;;;;;;;9.40;5.18;;;;;;;11.97;73.28;94457.53;6366872;22;19998;-61
2022/03/30 10:06:16;;;;;;;10.48;4.22;;;;;;;11.98;70.47;94459.97;6366677;22;20022;-61
2022/03/30 10:08:44;;;;;;;10.90;4.90;;;;;;;12.00;71.08;94457.16;6365729;22;20454;-61
2022/03/30 10:11:10;;;;;;;8.60;4.45;;;;;;;12.32;70.19;94449.88;6366067;22;20006;-61
2022/03/30 10:13:37;;;;;;;12.27;5.38;;;;;;;12.44;71.13;94447.59;6367022;22;19998;-61
2022/03/30 10:16:07;;;;;;;8.68;4.05;;;;;;;12.55;70.92;94447.16;6366594;22;20590;-61
2022/03/30 10:18:32;;;;;;;7.22;4.00;;;;;;;12.54;68.08;94437.59;6367250;22;20069;-61
2022/03/30 10:21:19;;;;;;;7.22;4.50;;;;;;;12.58;67.93;94438.84;6367435;22;20091;-61
2022/03/30 10:23:53;;;;;;;10.98;4.65;;;;;;;12.34;69.35;94439.16;6366948;22;20006;-61
2022/03/30 10:26:55;;;;;;;6.50;4.50;;;;;;;12.43;68.25;94438.06;6367771;22;20006;-61
2022/03/30 10:29:24;;;;;;;10.50;3.45;;;;;;;12.34;68.19;94437.31;6318020;22;20021;-61
2022/03/30 10:32:19;;;;;;;4.93;3.38;;;;;;;12.37;67.58;94425.59;6367358;22;20002;-61
2022/03/30 10:35:00;;;;;;;5.90;3.30;;;;;;;12.36;66.03;94418.69;6360084;22;20076;-61
2022/03/30 10:37:34;;;;;;;5.53;3.17;;;;;;;12.50;66.44;94417.84;6367016;22;20103;-61
2022/03/30 10:40:03;;;;;;;10.40;3.80;;;;;;;12.50;65.73;94417.84;6366400;22;20006;-61
2022/03/30 10:42:46;;;;;;;6.80;3.65;;;;;;;12.23;68.63;94419.34;6366177;22;20346;-61
2022/03/30 10:45:45;;;;;;;6.20;3.90;;;;;;;12.35;67.25;94401.22;6367294;22;20473;-61
2022/03/30 10:48:30;;;;;;;15.95;6.32;;;;;;;12.54;66.09;94405.91;6366879;22;20397;-62
2022/03/30 10:51:01;;;;;;;8.20;3.88;;;;;;;12.32;66.65;94407.66;6366406;22;20010;-61
2022/03/30 10:53:29;;;;;;;7.13;4.10;;;;;;;12.11;66.88;94400.53;6366910;22;20006;-61
2022/03/30 10:56:15;;;;;;;6.43;3.72;;;;;;;12.15;68.40;94391.22;6366957;22;20079;-61
2022/03/30 10:58:49;;;;;;;8.73;4.28;;;;;;;12.38;66.69;94393.75;6366199;22;20059;-61
2022/03/30 11:01:22;;;;;;;13.73;5.50;;;;;;;12.26;67.90;94396.03;6367456;22;20007;-60
2022/03/30 11:04:02;;;;;;;9.52;5.10;;;;;;;12.45;67.45;94402.56;6366562;22;20006;-61
2022/03/30 11:06:38;;;;;;;13.50;5.28;;;;;;;12.46;67.28;94388.34;6367635;22;20345;-60
2022/03/30 11:09:07;;;;;;;6.22;5.18;;;;;;;12.41;67.98;94392.56;6366632;22;20452;-60
2022/03/30 11:11:40;;;;;;;7.22;4.50;;;;;;;12.04;68.91;94384.59;6367243;22;20065;-60
2022/03/30 11:14:27;;;;;;;8.18;4.53;;;;;;;12.07;68.35;94389.50;6338818;22;20315;-60
2022/03/30 11:17:10;;;;;;;8.80;4.40;;;;;;;12.17;68.40;94381.31;6367149;22;20018;-60
2022/03/30 11:19:48;;;;;;;11.60;5.20;;;;;;;12.10;68.13;94369.88;6366759;22;20003;-60
2022/03/30 11:22:13;;;;;;;12.43;4.90;;;;;;;11.96;67.47;94380.19;6367006;22;20075;-60
2022/03/30 11:24:41;;;;;;;9.50;5.65;;;;;;;11.87;68.34;94376.03;6366479;22;20439;-60
2022/03/30 11:27:07;;;;;;;9.75;4.45;;;;;;;11.84;69.53;94379.03;6366932;22;20058;-60
2022/03/30 11:29:41;;;;;;;9.13;5.35;;;;;;;12.05;71.03;94375.69;6339033;22;20064;-60
2022/03/30 11:32:39;;;;;;;9.98;4.55;;;;;;;12.12;69.90;94371.28;6367116;22;20434;-60
2022/03/30 11:35:07;;;;;;;9.50;4.82;;;;;;;12.00;69.81;94363.00;6365858;22;20103;-59
2022/03/30 11:37:43;;;;;;;9.07;4.97;;;;;;;11.84;70.39;94374.56;6366646;22;20013;-60
2022/03/30 11:40:15;;;;;;;12.50;4.97;;;;;;;12.08;69.45;94353.41;6366651;22;20368;-60
2022/03/30 11:42:47;;;;;;;12.10;5.25;;;;;;;11.94;70.17;94355.84;6366742;22;19994;-59